sensor_id;sensor_type;location;lat;lon;timestamp;P1;durP1;ratioP1;P2;durP2;ratioP2
11348;SDS011;5729;43.570;27.826;2023-06-10T00:01:38;7.07;;;3.70;;
11348;SDS011;5729;43.570;27.826;2023-06-10T00:04:04;3.40;;;3.10;;
11348;SDS011;5729;43.570;27.826;2023-06-10T00:06:33;5.80;;;3.50;;
11348;SDS011;5729;43.570;27.826;2023-06-10T00:09:02;7.40;;;3.80;;
11348;SDS011;5729;43.570;27.826;2023-06-10T00:11:30;6.90;;;3.65;;
11348;SDS011;5729;43.570;27.826;2023-06-10T00:13:58;7.82;;;3.60;;
11348;SDS011;5729;43.570;27.826;2023-06-10T00:16:24;5.53;;;3.72;;
11348;SDS011;5729;43.570;27.826;2023-06-10T00:18:50;4.57;;;3.58;;
11348;SDS011;5729;43.570;27.826;2023-06-10T00:21:20;7.72;;;3.10;;
11348;SDS011;5729;43.570;27.826;2023-06-10T00:23:46;4.45;;;3.40;;
11348;SDS011;5729;43.570;27.826;2023-06-10T00:26:12;6.75;;;3.78;;
11348;SDS011;5729;43.570;27.826;2023-06-10T00:28:37;5.30;;;3.40;;
11348;SDS011;5729;43.570;27.826;2023-06-10T00:31:03;6.75;;;3.70;;
11348;SDS011;5729;43.570;27.826;2023-06-10T00:33:29;3.88;;;3.05;;
11348;SDS011;5729;43.570;27.826;2023-06-10T00:35:55;8.82;;;3.80;;
11348;SDS011;5729;43.570;27.826;2023-06-10T00:38:20;10.88;;;3.65;;
11348;SDS011;5729;43.570;27.826;2023-06-10T00:40:46;5.75;;;3.20;;
11348;SDS011;5729;43.570;27.826;2023-06-10T00:43:11;5.32;;;3.38;;
11348;SDS011;5729;43.570;27.826;2023-06-10T00:45:37;4.35;;;3.50;;
11348;SDS011;5729;43.570;27.826;2023-06-10T00:48:02;5.63;;;3.80;;
11348;SDS011;5729;43.570;27.826;2023-06-10T00:50:29;4.95;;;3.47;;
11348;SDS011;5729;43.570;27.826;2023-06-10T00:52:56;4.10;;;3.65;;
11348;SDS011;5729;43.570;27.826;2023-06-10T00:55:21;8.77;;;3.75;;
11348;SDS011;5729;43.570;27.826;2023-06-10T00:57:48;5.47;;;3.58;;
11348;SDS011;5729;43.570;27.826;2023-06-10T01:00:14;4.82;;;3.38;;
11348;SDS011;5729;43.570;27.826;2023-06-10T01:02:41;7.40;;;3.80;;
11348;SDS011;5729;43.570;27.826;2023-06-10T01:05:07;5.22;;;3.78;;
11348;SDS011;5729;43.570;27.826;2023-06-10T01:07:37;6.57;;;3.78;;
11348;SDS011;5729;43.570;27.826;2023-06-10T01:12:59;9.52;;;4.10;;
11348;SDS011;5729;43.570;27.826;2023-06-10T01:15:31;5.63;;;3.88;;
11348;SDS011;5729;43.570;27.826;2023-06-10T01:20:33;5.45;;;3.58;;
11348;SDS011;5729;43.570;27.826;2023-06-10T01:23:00;4.82;;;3.50;;
11348;SDS011;5729;43.570;27.826;2023-06-10T01:25:27;4.95;;;3.33;;
11348;SDS011;5729;43.570;27.826;2023-06-10T01:30:55;5.95;;;3.60;;
11348;SDS011;5729;43.570;27.826;2023-06-10T01:33:39;6.30;;;3.90;;
11348;SDS011;5729;43.570;27.826;2023-06-10T01:36:09;5.75;;;3.90;;
11348;SDS011;5729;43.570;27.826;2023-06-10T01:38:42;6.80;;;3.47;;
11348;SDS011;5729;43.570;27.826;2023-06-10T01:41:09;6.22;;;4.18;;
11348;SDS011;5729;43.570;27.826;2023-06-10T01:43:37;10.93;;;4.30;;
11348;SDS011;5729;43.570;27.826;2023-06-10T01:46:03;9.13;;;4.22;;
11348;SDS011;5729;43.570;27.826;2023-06-10T01:48:29;6.72;;;3.90;;
11348;SDS011;5729;43.570;27.826;2023-06-10T01:50:54;6.75;;;3.75;;
11348;SDS011;5729;43.570;27.826;2023-06-10T01:53:21;4.93;;;4.10;;
11348;SDS011;5729;43.570;27.826;2023-06-10T01:55:47;5.97;;;4.00;;
11348;SDS011;5729;43.570;27.826;2023-06-10T01:58:13;6.85;;;4.22;;
11348;SDS011;5729;43.570;27.826;2023-06-10T02:00:38;7.40;;;4.05;;
11348;SDS011;5729;43.570;27.826;2023-06-10T02:03:04;8.32;;;3.58;;
11348;SDS011;5729;43.570;27.826;2023-06-10T02:05:30;4.00;;;3.60;;
11348;SDS011;5729;43.570;27.826;2023-06-10T02:07:55;7.85;;;3.75;;
11348;SDS011;5729;43.570;27.826;2023-06-10T02:10:20;4.75;;;3.60;;
11348;SDS011;5729;43.570;27.826;2023-06-10T02:12:46;7.57;;;3.88;;
11348;SDS011;5729;43.570;27.826;2023-06-10T02:15:11;8.40;;;3.70;;
11348;SDS011;5729;43.570;27.826;2023-06-10T02:17:37;6.25;;;3.97;;
11348;SDS011;5729;43.570;27.826;2023-06-10T02:20:02;7.88;;;4.28;;
11348;SDS011;5729;43.570;27.826;2023-06-10T02:22:31;8.48;;;3.95;;
11348;SDS011;5729;43.570;27.826;2023-06-10T02:24:56;6.93;;;4.13;;
11348;SDS011;5729;43.570;27.826;2023-06-10T02:27:22;7.30;;;3.97;;
11348;SDS011;5729;43.570;27.826;2023-06-10T02:29:48;6.70;;;3.80;;
11348;SDS011;5729;43.570;27.826;2023-06-10T02:32:13;4.43;;;3.70;;
11348;SDS011;5729;43.570;27.826;2023-06-10T02:34:39;6.30;;;4.35;;
11348;SDS011;5729;43.570;27.826;2023-06-10T02:37:04;8.52;;;4.07;;
11348;SDS011;5729;43.570;27.826;2023-06-10T02:39:29;8.65;;;4.07;;
11348;SDS011;5729;43.570;27.826;2023-06-10T02:41:55;6.70;;;3.95;;
11348;SDS011;5729;43.570;27.826;2023-06-10T02:44:20;7.13;;;3.90;;
11348;SDS011;5729;43.570;27.826;2023-06-10T02:46:46;7.45;;;4.10;;
11348;SDS011;5729;43.570;27.826;2023-06-10T02:49:11;8.90;;;3.95;;
11348;SDS011;5729;43.570;27.826;2023-06-10T02:51:37;4.50;;;3.88;;
11348;SDS011;5729;43.570;27.826;2023-06-10T02:54:03;5.88;;;4.13;;
11348;SDS011;5729;43.570;27.826;2023-06-10T02:56:29;5.45;;;3.92;;
11348;SDS011;5729;43.570;27.826;2023-06-10T02:58:55;7.13;;;4.47;;
11348;SDS011;5729;43.570;27.826;2023-06-10T03:01:21;8.20;;;3.92;;
11348;SDS011;5729;43.570;27.826;2023-06-10T03:03:46;8.25;;;4.85;;
11348;SDS011;5729;43.570;27.826;2023-06-10T03:06:12;7.25;;;4.07;;
11348;SDS011;5729;43.570;27.826;2023-06-10T03:08:38;8.55;;;4.22;;
11348;SDS011;5729;43.570;27.826;2023-06-10T03:11:04;4.43;;;3.95;;
11348;SDS011;5729;43.570;27.826;2023-06-10T03:13:30;8.82;;;4.60;;
11348;SDS011;5729;43.570;27.826;2023-06-10T03:15:55;9.73;;;4.65;;
11348;SDS011;5729;43.570;27.826;2023-06-10T03:18:21;12.20;;;5.10;;
11348;SDS011;5729;43.570;27.826;2023-06-10T03:20:51;7.53;;;4.32;;
11348;SDS011;5729;43.570;27.826;2023-06-10T03:23:16;11.95;;;4.97;;
11348;SDS011;5729;43.570;27.826;2023-06-10T03:25:43;5.45;;;4.20;;
11348;SDS011;5729;43.570;27.826;2023-06-10T03:28:09;6.35;;;4.57;;
11348;SDS011;5729;43.570;27.826;2023-06-10T03:30:35;11.10;;;4.35;;
11348;SDS011;5729;43.570;27.826;2023-06-10T03:33:00;7.18;;;3.88;;
11348;SDS011;5729;43.570;27.826;2023-06-10T03:35:26;7.20;;;4.78;;
11348;SDS011;5729;43.570;27.826;2023-06-10T03:37:51;8.48;;;4.40;;
11348;SDS011;5729;43.570;27.826;2023-06-10T03:40:17;7.30;;;4.22;;
11348;SDS011;5729;43.570;27.826;2023-06-10T03:42:42;7.50;;;4.47;;
11348;SDS011;5729;43.570;27.826;2023-06-10T03:45:09;10.27;;;4.85;;
11348;SDS011;5729;43.570;27.826;2023-06-10T03:47:35;10.55;;;4.35;;
11348;SDS011;5729;43.570;27.826;2023-06-10T03:50:02;8.35;;;4.38;;
11348;SDS011;5729;43.570;27.826;2023-06-10T03:52:28;7.35;;;4.75;;
11348;SDS011;5729;43.570;27.826;2023-06-10T03:54:54;15.50;;;5.35;;
11348;SDS011;5729;43.570;27.826;2023-06-10T03:57:19;9.20;;;4.35;;
11348;SDS011;5729;43.570;27.826;2023-06-10T03:59:45;8.50;;;4.82;;
11348;SDS011;5729;43.570;27.826;2023-06-10T04:02:10;12.10;;;4.53;;
11348;SDS011;5729;43.570;27.826;2023-06-10T04:04:36;13.82;;;4.60;;
11348;SDS011;5729;43.570;27.826;2023-06-10T04:07:02;11.10;;;4.40;;
11348;SDS011;5729;43.570;27.826;2023-06-10T04:09:29;12.68;;;4.50;;
11348;SDS011;5729;43.570;27.826;2023-06-10T04:11:54;11.55;;;5.25;;
11348;SDS011;5729;43.570;27.826;2023-06-10T04:14:20;10.55;;;5.18;;
11348;SDS011;5729;43.570;27.826;2023-06-10T04:16:45;12.77;;;5.20;;
11348;SDS011;5729;43.570;27.826;2023-06-10T04:19:10;8.65;;;4.78;;
11348;SDS011;5729;43.570;27.826;2023-06-10T04:21:36;13.77;;;4.90;;
11348;SDS011;5729;43.570;27.826;2023-06-10T04:24:01;7.75;;;4.95;;
11348;SDS011;5729;43.570;27.826;2023-06-10T04:26:27;14.07;;;6.00;;
11348;SDS011;5729;43.570;27.826;2023-06-10T04:28:53;10.35;;;6.13;;
11348;SDS011;5729;43.570;27.826;2023-06-10T04:31:18;17.42;;;5.35;;
11348;SDS011;5729;43.570;27.826;2023-06-10T04:33:44;10.98;;;5.10;;
11348;SDS011;5729;43.570;27.826;2023-06-10T04:36:10;16.38;;;5.72;;
11348;SDS011;5729;43.570;27.826;2023-06-10T04:38:35;10.65;;;5.45;;
11348;SDS011;5729;43.570;27.826;2023-06-10T04:41:01;13.15;;;5.75;;
11348;SDS011;5729;43.570;27.826;2023-06-10T04:43:27;9.60;;;5.13;;
11348;SDS011;5729;43.570;27.826;2023-06-10T04:45:53;12.30;;;4.63;;
11348;SDS011;5729;43.570;27.826;2023-06-10T04:48:20;7.15;;;5.15;;
11348;SDS011;5729;43.570;27.826;2023-06-10T04:50:46;10.55;;;6.25;;
11348;SDS011;5729;43.570;27.826;2023-06-10T04:53:11;10.85;;;6.07;;
11348;SDS011;5729;43.570;27.826;2023-06-10T04:55:37;25.13;;;6.97;;
11348;SDS011;5729;43.570;27.826;2023-06-10T04:58:02;6.68;;;5.72;;
11348;SDS011;5729;43.570;27.826;2023-06-10T05:00:29;9.63;;;7.05;;
11348;SDS011;5729;43.570;27.826;2023-06-10T05:02:54;8.93;;;7.18;;
11348;SDS011;5729;43.570;27.826;2023-06-10T05:05:21;7.55;;;6.20;;
11348;SDS011;5729;43.570;27.826;2023-06-10T05:07:46;10.65;;;5.60;;
11348;SDS011;5729;43.570;27.826;2023-06-10T05:10:12;8.43;;;5.20;;
11348;SDS011;5729;43.570;27.826;2023-06-10T05:12:40;9.07;;;5.00;;
11348;SDS011;5729;43.570;27.826;2023-06-10T05:15:06;8.25;;;5.90;;
11348;SDS011;5729;43.570;27.826;2023-06-10T05:17:32;8.52;;;6.53;;
11348;SDS011;5729;43.570;27.826;2023-06-10T05:19:58;7.35;;;5.40;;
11348;SDS011;5729;43.570;27.826;2023-06-10T05:22:23;7.90;;;5.22;;
11348;SDS011;5729;43.570;27.826;2023-06-10T05:24:50;8.23;;;4.90;;
11348;SDS011;5729;43.570;27.826;2023-06-10T05:27:16;6.95;;;5.03;;
11348;SDS011;5729;43.570;27.826;2023-06-10T05:29:42;12.40;;;5.80;;
11348;SDS011;5729;43.570;27.826;2023-06-10T05:32:07;7.53;;;5.40;;
11348;SDS011;5729;43.570;27.826;2023-06-10T05:34:33;10.68;;;5.38;;
11348;SDS011;5729;43.570;27.826;2023-06-10T05:36:59;17.17;;;5.35;;
11348;SDS011;5729;43.570;27.826;2023-06-10T05:39:24;12.63;;;5.10;;
11348;SDS011;5729;43.570;27.826;2023-06-10T05:41:50;13.35;;;5.40;;
11348;SDS011;5729;43.570;27.826;2023-06-10T05:44:15;12.85;;;4.20;;
11348;SDS011;5729;43.570;27.826;2023-06-10T05:46:41;6.45;;;4.78;;
11348;SDS011;5729;43.570;27.826;2023-06-10T05:49:06;11.20;;;3.78;;
11348;SDS011;5729;43.570;27.826;2023-06-10T05:51:32;7.00;;;3.40;;
11348;SDS011;5729;43.570;27.826;2023-06-10T05:53:57;9.48;;;3.65;;
11348;SDS011;5729;43.570;27.826;2023-06-10T05:56:23;12.82;;;2.97;;
11348;SDS011;5729;43.570;27.826;2023-06-10T05:58:49;3.85;;;2.78;;
11348;SDS011;5729;43.570;27.826;2023-06-10T06:01:14;7.93;;;3.03;;
11348;SDS011;5729;43.570;27.826;2023-06-10T06:03:40;3.55;;;2.70;;
11348;SDS011;5729;43.570;27.826;2023-06-10T06:06:06;6.15;;;3.30;;
11348;SDS011;5729;43.570;27.826;2023-06-10T06:08:31;4.32;;;2.50;;
11348;SDS011;5729;43.570;27.826;2023-06-10T06:10:57;5.03;;;2.47;;
11348;SDS011;5729;43.570;27.826;2023-06-10T06:13:23;7.32;;;2.60;;
11348;SDS011;5729;43.570;27.826;2023-06-10T06:15:48;6.88;;;2.75;;
11348;SDS011;5729;43.570;27.826;2023-06-10T06:18:15;6.90;;;2.80;;
11348;SDS011;5729;43.570;27.826;2023-06-10T06:20:40;2.90;;;2.30;;
11348;SDS011;5729;43.570;27.826;2023-06-10T06:23:06;4.30;;;2.45;;
11348;SDS011;5729;43.570;27.826;2023-06-10T06:25:33;4.22;;;2.45;;
11348;SDS011;5729;43.570;27.826;2023-06-10T06:28:00;6.47;;;2.92;;
11348;SDS011;5729;43.570;27.826;2023-06-10T06:30:26;6.68;;;2.50;;
11348;SDS011;5729;43.570;27.826;2023-06-10T06:32:51;5.45;;;2.10;;
11348;SDS011;5729;43.570;27.826;2023-06-10T06:35:17;6.18;;;2.65;;
11348;SDS011;5729;43.570;27.826;2023-06-10T06:37:42;5.03;;;2.50;;
11348;SDS011;5729;43.570;27.826;2023-06-10T06:40:08;6.30;;;2.40;;
11348;SDS011;5729;43.570;27.826;2023-06-10T06:42:33;4.72;;;2.72;;
11348;SDS011;5729;43.570;27.826;2023-06-10T06:44:59;7.57;;;2.33;;
11348;SDS011;5729;43.570;27.826;2023-06-10T06:47:24;5.32;;;2.47;;
11348;SDS011;5729;43.570;27.826;2023-06-10T06:49:51;4.95;;;2.58;;
11348;SDS011;5729;43.570;27.826;2023-06-10T06:52:16;6.07;;;2.60;;
11348;SDS011;5729;43.570;27.826;2023-06-10T06:54:42;3.83;;;2.13;;
11348;SDS011;5729;43.570;27.826;2023-06-10T06:57:07;8.38;;;2.30;;
11348;SDS011;5729;43.570;27.826;2023-06-10T06:59:33;2.90;;;2.33;;
11348;SDS011;5729;43.570;27.826;2023-06-10T07:01:58;3.47;;;2.78;;
11348;SDS011;5729;43.570;27.826;2023-06-10T07:04:24;9.48;;;2.60;;
11348;SDS011;5729;43.570;27.826;2023-06-10T07:06:49;6.63;;;2.42;;
11348;SDS011;5729;43.570;27.826;2023-06-10T07:09:15;2.50;;;2.17;;
11348;SDS011;5729;43.570;27.826;2023-06-10T07:11:41;3.47;;;2.17;;
11348;SDS011;5729;43.570;27.826;2023-06-10T07:14:06;3.38;;;2.50;;
11348;SDS011;5729;43.570;27.826;2023-06-10T07:16:32;6.05;;;2.42;;
11348;SDS011;5729;43.570;27.826;2023-06-10T07:18:57;8.65;;;2.20;;
11348;SDS011;5729;43.570;27.826;2023-06-10T07:21:23;8.30;;;2.10;;
11348;SDS011;5729;43.570;27.826;2023-06-10T07:23:48;6.47;;;2.67;;
11348;SDS011;5729;43.570;27.826;2023-06-10T07:26:17;8.20;;;2.40;;
11348;SDS011;5729;43.570;27.826;2023-06-10T07:28:43;4.47;;;2.38;;
11348;SDS011;5729;43.570;27.826;2023-06-10T07:31:08;5.90;;;2.30;;
11348;SDS011;5729;43.570;27.826;2023-06-10T07:33:34;6.63;;;2.17;;
11348;SDS011;5729;43.570;27.826;2023-06-10T07:35:59;7.60;;;2.45;;
11348;SDS011;5729;43.570;27.826;2023-06-10T07:38:25;5.88;;;2.50;;
11348;SDS011;5729;43.570;27.826;2023-06-10T07:40:51;8.93;;;2.50;;
11348;SDS011;5729;43.570;27.826;2023-06-10T07:43:17;4.25;;;2.00;;
11348;SDS011;5729;43.570;27.826;2023-06-10T07:45:44;3.75;;;2.50;;
11348;SDS011;5729;43.570;27.826;2023-06-10T07:48:09;7.18;;;2.45;;
11348;SDS011;5729;43.570;27.826;2023-06-10T07:50:35;6.47;;;2.83;;
11348;SDS011;5729;43.570;27.826;2023-06-10T07:53:00;5.00;;;2.58;;
11348;SDS011;5729;43.570;27.826;2023-06-10T07:55:26;3.85;;;2.40;;
11348;SDS011;5729;43.570;27.826;2023-06-10T07:57:52;3.33;;;2.30;;
11348;SDS011;5729;43.570;27.826;2023-06-10T08:00:18;3.95;;;2.20;;
11348;SDS011;5729;43.570;27.826;2023-06-10T08:02:43;3.22;;;2.22;;
11348;SDS011;5729;43.570;27.826;2023-06-10T08:05:09;5.30;;;2.50;;
11348;SDS011;5729;43.570;27.826;2023-06-10T08:07:35;7.90;;;2.85;;
11348;SDS011;5729;43.570;27.826;2023-06-10T08:10:00;6.55;;;2.40;;
11348;SDS011;5729;43.570;27.826;2023-06-10T08:12:26;3.80;;;2.42;;
11348;SDS011;5729;43.570;27.826;2023-06-10T08:14:52;6.90;;;3.00;;
11348;SDS011;5729;43.570;27.826;2023-06-10T08:17:17;4.85;;;2.50;;
11348;SDS011;5729;43.570;27.826;2023-06-10T08:19:43;2.92;;;2.35;;
11348;SDS011;5729;43.570;27.826;2023-06-10T08:22:08;5.25;;;2.35;;
11348;SDS011;5729;43.570;27.826;2023-06-10T08:24:35;6.55;;;2.17;;
11348;SDS011;5729;43.570;27.826;2023-06-10T08:27:00;2.88;;;2.25;;
11348;SDS011;5729;43.570;27.826;2023-06-10T08:29:25;6.82;;;2.70;;
11348;SDS011;5729;43.570;27.826;2023-06-10T08:31:51;4.95;;;2.55;;
11348;SDS011;5729;43.570;27.826;2023-06-10T08:34:16;6.95;;;2.97;;
11348;SDS011;5729;43.570;27.826;2023-06-10T08:36:43;5.75;;;2.55;;
11348;SDS011;5729;43.570;27.826;2023-06-10T08:39:09;11.43;;;2.55;;
11348;SDS011;5729;43.570;27.826;2023-06-10T08:41:35;3.35;;;2.38;;
11348;SDS011;5729;43.570;27.826;2023-06-10T08:44:17;3.33;;;2.45;;
11348;SDS011;5729;43.570;27.826;2023-06-10T08:46:47;7.97;;;2.90;;
11348;SDS011;5729;43.570;27.826;2023-06-10T08:49:15;8.02;;;2.65;;
11348;SDS011;5729;43.570;27.826;2023-06-10T08:51:50;3.13;;;2.20;;
11348;SDS011;5729;43.570;27.826;2023-06-10T08:54:25;8.43;;;2.58;;
11348;SDS011;5729;43.570;27.826;2023-06-10T08:56:52;7.68;;;2.28;;
11348;SDS011;5729;43.570;27.826;2023-06-10T08:59:20;6.47;;;3.00;;
11348;SDS011;5729;43.570;27.826;2023-06-10T09:01:46;3.58;;;2.35;;
11348;SDS011;5729;43.570;27.826;2023-06-10T09:04:12;5.50;;;2.33;;
11348;SDS011;5729;43.570;27.826;2023-06-10T09:06:38;7.30;;;3.00;;
11348;SDS011;5729;43.570;27.826;2023-06-10T09:09:05;4.63;;;2.47;;
11348;SDS011;5729;43.570;27.826;2023-06-10T09:11:32;5.75;;;2.95;;
11348;SDS011;5729;43.570;27.826;2023-06-10T09:13:58;21.48;;;3.00;;
11348;SDS011;5729;43.570;27.826;2023-06-10T09:16:26;4.72;;;2.53;;
11348;SDS011;5729;43.570;27.826;2023-06-10T09:18:52;5.53;;;2.60;;
11348;SDS011;5729;43.570;27.826;2023-06-10T09:21:23;4.65;;;2.60;;
11348;SDS011;5729;43.570;27.826;2023-06-10T09:23:49;8.38;;;2.80;;
11348;SDS011;5729;43.570;27.826;2023-06-10T09:26:14;7.03;;;3.00;;
11348;SDS011;5729;43.570;27.826;2023-06-10T09:28:41;6.30;;;2.70;;
11348;SDS011;5729;43.570;27.826;2023-06-10T09:31:09;13.25;;;2.67;;
11348;SDS011;5729;43.570;27.826;2023-06-10T09:33:38;7.93;;;2.85;;
11348;SDS011;5729;43.570;27.826;2023-06-10T09:36:04;5.45;;;2.92;;
11348;SDS011;5729;43.570;27.826;2023-06-10T09:38:31;9.35;;;2.97;;
11348;SDS011;5729;43.570;27.826;2023-06-10T09:40:57;6.97;;;3.05;;
11348;SDS011;5729;43.570;27.826;2023-06-10T09:43:23;6.00;;;2.70;;
11348;SDS011;5729;43.570;27.826;2023-06-10T09:46:04;5.93;;;2.85;;
11348;SDS011;5729;43.570;27.826;2023-06-10T09:48:29;5.20;;;2.75;;
11348;SDS011;5729;43.570;27.826;2023-06-10T09:50:59;4.43;;;3.00;;
11348;SDS011;5729;43.570;27.826;2023-06-10T09:53:24;5.05;;;2.78;;
11348;SDS011;5729;43.570;27.826;2023-06-10T09:55:51;15.23;;;3.03;;
11348;SDS011;5729;43.570;27.826;2023-06-10T09:58:17;8.50;;;2.83;;
11348;SDS011;5729;43.570;27.826;2023-06-10T10:00:42;6.72;;;3.10;;
11348;SDS011;5729;43.570;27.826;2023-06-10T10:03:08;6.07;;;3.00;;
11348;SDS011;5729;43.570;27.826;2023-06-10T10:05:33;6.88;;;3.00;;
11348;SDS011;5729;43.570;27.826;2023-06-10T10:07:59;8.07;;;3.50;;
11348;SDS011;5729;43.570;27.826;2023-06-10T10:10:25;8.85;;;3.83;;
11348;SDS011;5729;43.570;27.826;2023-06-10T10:12:52;6.10;;;4.00;;
11348;SDS011;5729;43.570;27.826;2023-06-10T10:15:21;8.45;;;3.05;;
11348;SDS011;5729;43.570;27.826;2023-06-10T10:18:00;5.65;;;3.30;;
11348;SDS011;5729;43.570;27.826;2023-06-10T10:20:33;8.80;;;3.00;;
11348;SDS011;5729;43.570;27.826;2023-06-10T10:23:00;3.83;;;2.90;;
11348;SDS011;5729;43.570;27.826;2023-06-10T10:25:29;9.02;;;3.13;;
11348;SDS011;5729;43.570;27.826;2023-06-10T10:28:07;4.95;;;3.10;;
11348;SDS011;5729;43.570;27.826;2023-06-10T10:30:37;7.28;;;3.20;;
11348;SDS011;5729;43.570;27.826;2023-06-10T10:35:56;5.63;;;3.00;;
11348;SDS011;5729;43.570;27.826;2023-06-10T10:38:23;7.15;;;3.10;;
11348;SDS011;5729;43.570;27.826;2023-06-10T10:40:49;10.75;;;3.08;;
11348;SDS011;5729;43.570;27.826;2023-06-10T10:43:15;5.18;;;2.90;;
11348;SDS011;5729;43.570;27.826;2023-06-10T10:45:41;8.02;;;3.15;;
11348;SDS011;5729;43.570;27.826;2023-06-10T10:48:08;3.72;;;3.17;;
11348;SDS011;5729;43.570;27.826;2023-06-10T10:50:37;7.72;;;3.28;;
11348;SDS011;5729;43.570;27.826;2023-06-10T10:53:04;6.93;;;3.05;;
11348;SDS011;5729;43.570;27.826;2023-06-10T10:55:30;4.93;;;3.17;;
11348;SDS011;5729;43.570;27.826;2023-06-10T10:58:14;6.80;;;3.03;;
11348;SDS011;5729;43.570;27.826;2023-06-10T11:01:00;7.25;;;2.97;;
11348;SDS011;5729;43.570;27.826;2023-06-10T11:03:44;12.65;;;2.80;;
11348;SDS011;5729;43.570;27.826;2023-06-10T11:06:15;10.27;;;2.90;;
11348;SDS011;5729;43.570;27.826;2023-06-10T11:11:18;4.60;;;2.92;;
11348;SDS011;5729;43.570;27.826;2023-06-10T11:16:27;8.20;;;3.15;;
11348;SDS011;5729;43.570;27.826;2023-06-10T11:18:53;6.10;;;3.00;;
11348;SDS011;5729;43.570;27.826;2023-06-10T11:21:20;9.73;;;3.15;;
11348;SDS011;5729;43.570;27.826;2023-06-10T11:23:48;6.63;;;3.17;;
11348;SDS011;5729;43.570;27.826;2023-06-10T11:31:24;7.35;;;3.20;;
11348;SDS011;5729;43.570;27.826;2023-06-10T11:33:53;4.93;;;3.25;;
11348;SDS011;5729;43.570;27.826;2023-06-10T11:36:21;9.10;;;3.55;;
11348;SDS011;5729;43.570;27.826;2023-06-10T11:38:46;6.65;;;3.05;;
11348;SDS011;5729;43.570;27.826;2023-06-10T11:41:17;5.90;;;3.33;;
11348;SDS011;5729;43.570;27.826;2023-06-10T11:43:45;10.07;;;3.25;;
11348;SDS011;5729;43.570;27.826;2023-06-10T11:46:11;4.60;;;3.47;;
11348;SDS011;5729;43.570;27.826;2023-06-10T11:48:52;9.63;;;3.20;;
11348;SDS011;5729;43.570;27.826;2023-06-10T11:51:20;16.02;;;3.40;;
11348;SDS011;5729;43.570;27.826;2023-06-10T11:53:48;8.93;;;3.10;;
11348;SDS011;5729;43.570;27.826;2023-06-10T11:56:21;10.23;;;3.08;;
11348;SDS011;5729;43.570;27.826;2023-06-10T11:58:57;6.43;;;3.03;;
11348;SDS011;5729;43.570;27.826;2023-06-10T12:01:32;8.45;;;3.42;;
11348;SDS011;5729;43.570;27.826;2023-06-10T12:06:25;5.47;;;3.05;;
11348;SDS011;5729;43.570;27.826;2023-06-10T12:08:51;4.75;;;3.00;;
11348;SDS011;5729;43.570;27.826;2023-06-10T12:11:18;5.75;;;3.13;;
11348;SDS011;5729;43.570;27.826;2023-06-10T12:13:46;6.20;;;3.20;;
11348;SDS011;5729;43.570;27.826;2023-06-10T12:16:15;5.07;;;2.83;;
11348;SDS011;5729;43.570;27.826;2023-06-10T12:18:43;7.65;;;3.13;;
11348;SDS011;5729;43.570;27.826;2023-06-10T12:21:19;4.40;;;3.20;;
11348;SDS011;5729;43.570;27.826;2023-06-10T12:26:48;5.15;;;2.72;;
11348;SDS011;5729;43.570;27.826;2023-06-10T12:31:54;6.50;;;2.65;;
11348;SDS011;5729;43.570;27.826;2023-06-10T12:34:27;3.25;;;2.70;;
11348;SDS011;5729;43.570;27.826;2023-06-10T12:36:56;4.40;;;2.60;;
11348;SDS011;5729;43.570;27.826;2023-06-10T12:39:22;6.38;;;3.17;;
11348;SDS011;5729;43.570;27.826;2023-06-10T12:41:48;4.55;;;2.63;;
11348;SDS011;5729;43.570;27.826;2023-06-10T12:44:14;6.43;;;2.83;;
11348;SDS011;5729;43.570;27.826;2023-06-10T12:46:40;4.72;;;2.60;;
11348;SDS011;5729;43.570;27.826;2023-06-10T12:49:05;7.40;;;2.65;;
11348;SDS011;5729;43.570;27.826;2023-06-10T12:51:31;3.38;;;2.63;;
11348;SDS011;5729;43.570;27.826;2023-06-10T12:53:56;7.57;;;2.78;;
11348;SDS011;5729;43.570;27.826;2023-06-10T12:56:23;4.18;;;2.00;;
11348;SDS011;5729;43.570;27.826;2023-06-10T12:58:48;5.47;;;2.90;;
11348;SDS011;5729;43.570;27.826;2023-06-10T13:01:14;8.38;;;2.80;;
11348;SDS011;5729;43.570;27.826;2023-06-10T13:03:39;8.02;;;2.85;;
11348;SDS011;5729;43.570;27.826;2023-06-10T13:06:05;4.85;;;2.95;;
11348;SDS011;5729;43.570;27.826;2023-06-10T13:08:32;4.60;;;2.63;;
11348;SDS011;5729;43.570;27.826;2023-06-10T13:10:58;7.82;;;2.83;;
11348;SDS011;5729;43.570;27.826;2023-06-10T13:13:24;5.18;;;2.72;;
11348;SDS011;5729;43.570;27.826;2023-06-10T13:15:50;7.30;;;2.63;;
11348;SDS011;5729;43.570;27.826;2023-06-10T13:18:16;6.70;;;3.00;;
11348;SDS011;5729;43.570;27.826;2023-06-10T13:20:44;6.90;;;2.92;;
11348;SDS011;5729;43.570;27.826;2023-06-10T13:23:09;9.73;;;2.60;;
11348;SDS011;5729;43.570;27.826;2023-06-10T13:25:35;3.17;;;2.40;;
11348;SDS011;5729;43.570;27.826;2023-06-10T13:28:00;7.55;;;2.85;;
11348;SDS011;5729;43.570;27.826;2023-06-10T13:30:26;8.80;;;3.08;;
11348;SDS011;5729;43.570;27.826;2023-06-10T13:32:51;2.95;;;2.50;;
11348;SDS011;5729;43.570;27.826;2023-06-10T13:35:17;4.50;;;2.72;;
11348;SDS011;5729;43.570;27.826;2023-06-10T13:37:42;4.25;;;2.50;;
11348;SDS011;5729;43.570;27.826;2023-06-10T13:40:08;7.68;;;2.78;;
11348;SDS011;5729;43.570;27.826;2023-06-10T13:42:35;4.65;;;2.55;;
11348;SDS011;5729;43.570;27.826;2023-06-10T13:45:01;3.67;;;2.90;;
11348;SDS011;5729;43.570;27.826;2023-06-10T13:47:27;6.35;;;2.55;;
11348;SDS011;5729;43.570;27.826;2023-06-10T13:49:53;6.47;;;2.42;;
11348;SDS011;5729;43.570;27.826;2023-06-10T13:52:19;5.93;;;2.30;;
11348;SDS011;5729;43.570;27.826;2023-06-10T13:54:44;5.75;;;2.55;;
11348;SDS011;5729;43.570;27.826;2023-06-10T13:57:10;8.88;;;3.15;;
11348;SDS011;5729;43.570;27.826;2023-06-10T13:59:35;7.70;;;2.72;;
11348;SDS011;5729;43.570;27.826;2023-06-10T14:02:01;8.57;;;2.60;;
11348;SDS011;5729;43.570;27.826;2023-06-10T14:04:26;3.53;;;2.58;;
11348;SDS011;5729;43.570;27.826;2023-06-10T14:06:52;5.47;;;2.50;;
11348;SDS011;5729;43.570;27.826;2023-06-10T14:09:17;4.28;;;2.85;;
11348;SDS011;5729;43.570;27.826;2023-06-10T14:11:44;3.83;;;3.00;;
11348;SDS011;5729;43.570;27.826;2023-06-10T14:14:09;5.07;;;2.45;;
11348;SDS011;5729;43.570;27.826;2023-06-10T14:16:35;12.18;;;3.10;;
11348;SDS011;5729;43.570;27.826;2023-06-10T14:19:00;12.23;;;2.88;;
11348;SDS011;5729;43.570;27.826;2023-06-10T14:21:26;7.47;;;2.95;;
11348;SDS011;5729;43.570;27.826;2023-06-10T14:23:51;3.03;;;2.35;;
11348;SDS011;5729;43.570;27.826;2023-06-10T14:26:18;8.35;;;2.70;;
11348;SDS011;5729;43.570;27.826;2023-06-10T14:28:46;6.50;;;3.15;;
11348;SDS011;5729;43.570;27.826;2023-06-10T14:31:12;5.07;;;2.65;;
11348;SDS011;5729;43.570;27.826;2023-06-10T14:33:37;6.38;;;2.88;;
11348;SDS011;5729;43.570;27.826;2023-06-10T14:36:04;8.60;;;2.80;;
11348;SDS011;5729;43.570;27.826;2023-06-10T14:38:30;5.50;;;3.10;;
11348;SDS011;5729;43.570;27.826;2023-06-10T14:40:55;10.75;;;3.22;;
11348;SDS011;5729;43.570;27.826;2023-06-10T14:43:21;10.55;;;3.58;;
11348;SDS011;5729;43.570;27.826;2023-06-10T14:45:46;5.68;;;3.25;;
11348;SDS011;5729;43.570;27.826;2023-06-10T14:48:11;14.20;;;4.28;;
11348;SDS011;5729;43.570;27.826;2023-06-10T14:50:38;8.70;;;3.45;;
11348;SDS011;5729;43.570;27.826;2023-06-10T14:53:05;6.95;;;3.15;;
11348;SDS011;5729;43.570;27.826;2023-06-10T14:55:30;7.38;;;3.17;;
11348;SDS011;5729;43.570;27.826;2023-06-10T14:57:56;13.90;;;3.08;;
11348;SDS011;5729;43.570;27.826;2023-06-10T15:00:22;5.00;;;3.13;;
11348;SDS011;5729;43.570;27.826;2023-06-10T15:02:49;7.82;;;3.05;;
11348;SDS011;5729;43.570;27.826;2023-06-10T15:05:15;7.78;;;3.13;;
11348;SDS011;5729;43.570;27.826;2023-06-10T15:07:41;8.15;;;3.20;;
11348;SDS011;5729;43.570;27.826;2023-06-10T15:10:07;7.90;;;3.33;;
11348;SDS011;5729;43.570;27.826;2023-06-10T15:12:33;6.78;;;3.08;;